Search for airport 
image banner adimage banner adimage banner ad
image banner ad

CA67 - Valley Crop Dusters, Inc

Located in Westley, United States

ICAO - CA67, IATA -

Data provided by Airmate  

General information

Coordinates: N37°32'53" W121°12'18"
Elevation is 96 feet MSL.
Magnetic variation is 16° East
View others Airports in California

Operational data

Special qualification required
Current time UTC:
Current local time:
METAR: KMOD 211153Z AUTO 34006KT 10SM CLR 16/11 A2981 RMK AO2 SLP094 T01610111 10239 20161 53007
TAF: KMOD 211120Z 2112/2212 33011KT P6SM SKC FM220000 33012G18KT P6SM SKC FM220900 34009KT P6SM SKC
View NOTAMs / SUP AIP / TFR affecting this airport [VIEW]
Communications frequencies: [VIEW]

Runways:

RWY identifierQFULength (ft)Width (ft)SurfaceLDA (ft)
03156230ASPH
21156230ASPH

Airport contact information

Address: Westley United States

Satellite view of CA67